Martinsburg, Ohio
Current Conditions -  °F | °C
As of 4:35 AM on Friday 28 Nov 2014 (Local Time) from K4I3 Reporting Station
Light Snow Light Snow  
Wind Chill: 15°   Ceiling: 1700
Heat Index: 25°   Visibility: 7mi
Dew Point: 21°   Wind: 9mph
Humidity: 86%   Direction: 300°WNW
Pressure: 30.31"   Gusts: NA
Location:  40.27°N, 82.35°W
Report Text: K4I3 280935Z AUTO 30008KT 7SM -SN SCT006 BKN017 BKN025 M04/M06 A3031 RMK AO2
Loading
Personal Weather Stations






























Interactive Weather Map New forecast layout! Learn more

10-Day Weather Forecast

Advertisements
Track Severe Weather on mobile